Time;durP1;ratioP1;P1;durP2;ratioP2;P2;SDS_P1;SDS_P2;PMS_P1;PMS_P2;Temp;Humidity;BMP_temperature;BMP_pressure;BME280_temperature;BME280_humidity;BME280_pressure;Samples;Min_cycle;Max_cycle;Signal;HPM_P1;HPM_P2
2024/04/17 00:00:37;;;;;;;0.60;0.60;;;6.00;99.90;5.80;99390.00;;;;5309199;26;114471;-62
2024/04/17 00:03:03;;;;;;;4.17;0.50;;;5.90;99.90;5.70;99398.00;;;;5310957;26;114014;-63
2024/04/17 00:05:29;;;;;;;0.60;0.57;;;5.90;99.90;5.60;99400.00;;;;5312966;26;84322;-62
2024/04/17 00:07:54;;;;;;;1.00;0.80;;;5.70;99.90;5.50;99395.00;;;;5314310;26;107079;-62
2024/04/17 00:10:21;;;;;;;0.50;0.30;;;5.90;99.90;5.40;99398.00;;;;5309778;26;114567;-62
2024/04/17 00:12:46;;;;;;;0.60;0.57;;;5.60;99.90;5.30;99398.00;;;;5311202;26;84688;-62
2024/04/17 00:15:12;;;;;;;0.50;0.50;;;5.50;99.90;5.20;99402.00;;;;5310325;26;105954;-64
2024/04/17 00:17:38;;;;;;;0.50;0.50;;;5.50;99.90;5.10;99402.00;;;;5311820;26;105507;-61
2024/04/17 00:20:04;;;;;;;0.60;0.40;;;5.40;99.90;5.10;99403.00;;;;5308059;26;113966;-63
2024/04/17 00:22:29;;;;;;;0.93;0.60;;;5.30;99.90;5.00;99403.00;;;;5309407;26;98841;-63
2024/04/17 00:24:55;;;;;;;1.93;0.70;;;5.20;99.90;4.90;99410.00;;;;5309547;26;106432;-63
2024/04/17 00:27:21;;;;;;;0.60;0.60;;;5.90;99.90;4.80;99406.00;;;;5308769;26;106298;-63
2024/04/17 00:29:46;;;;;;;0.70;0.60;;;5.00;99.90;4.70;99409.00;;;;5312378;26;85288;-63
2024/04/17 00:32:12;;;;;;;1.10;0.77;;;5.80;99.90;4.70;99406.00;;;;5311280;26;115530;-64
2024/04/17 00:34:38;;;;;;;1.03;0.90;;;5.70;99.90;4.70;99407.00;;;;5314543;26;107520;-63
2024/04/17 00:37:04;;;;;;;0.60;0.50;;;4.90;99.90;4.70;99406.00;;;;5315806;26;106234;-62
2024/04/17 00:39:29;;;;;;;1.83;1.10;;;4.90;99.90;4.70;99409.00;;;;5312568;26;85964;-62
2024/04/17 00:41:55;;;;;;;1.03;0.70;;;4.90;99.90;4.60;99406.00;;;;5306282;26;117202;-63
2024/04/17 00:44:20;;;;;;;0.40;0.40;;;4.90;99.90;4.60;99407.00;;;;5311221;26;84306;-62
2024/04/17 00:46:46;;;;;;;0.70;0.70;;;4.80;99.90;4.50;99413.00;;;;5308074;26;106422;-64
2024/04/17 00:49:12;;;;;;;2.87;0.70;;;4.70;99.90;4.40;99412.00;;;;5303085;26;115504;-60
2024/04/17 00:51:39;;;;;;;1.67;0.77;;;4.60;99.90;4.40;99413.00;;;;5361903;25;114344;-61
2024/04/17 00:54:06;;;;;;;0.97;0.80;;;4.70;99.90;4.50;99422.00;;;;5311524;26;84106;-62
2024/04/17 00:56:33;;;;;;;0.97;0.73;;;4.70;99.90;4.60;99420.00;;;;5309658;26;104683;-63
2024/04/17 00:59:00;;;;;;;3.17;1.13;;;4.70;99.90;4.60;99425.00;;;;5320060;26;112817;-61
2024/04/17 01:01:26;;;;;;;1.07;0.97;;;5.40;99.90;4.70;99422.00;;;;5302255;26;114933;-62
2024/04/17 01:03:51;;;;;;;0.83;0.67;;;4.90;99.90;4.80;99427.00;;;;5307247;26;91454;-62
2024/04/17 01:06:18;;;;;;;1.30;1.13;;;4.90;99.90;4.80;99420.00;;;;5308460;26;105242;-62
2024/04/17 01:08:43;;;;;;;1.03;0.97;;;4.90;99.90;4.80;99416.00;;;;5309834;26;84397;-62
2024/04/17 01:11:09;;;;;;;0.60;0.50;;;5.00;99.90;4.70;99424.00;;;;5312976;26;114407;-62
2024/04/17 01:13:35;;;;;;;1.43;1.10;;;4.90;99.90;4.60;99415.00;;;;5305616;26;107591;-61
2024/04/17 01:16:00;;;;;;;2.10;0.70;;;4.90;99.90;4.50;99415.00;;;;5313017;26;106828;-62
2024/04/17 01:18:26;;;;;;;0.77;0.73;;;4.80;99.90;4.40;99430.00;;;;5312599;26;84693;-61
2024/04/17 01:20:55;;;;;;;0.97;0.70;;;4.60;99.90;4.30;99423.00;;;;5313054;26;115285;-62
2024/04/17 01:23:21;;;;;;;0.70;0.70;;;4.80;99.90;4.20;99407.00;;;;5311585;26;84374;-63
2024/04/17 01:25:51;;;;;;;3.30;1.33;;;4.40;99.90;4.10;99420.00;;;;5309366;26;106556;-64
2024/04/17 01:28:17;;;;;;;1.40;0.80;;;4.30;99.90;4.00;99432.00;;;;5307781;26;86236;-62
2024/04/17 01:30:43;;;;;;;0.77;0.70;;;4.30;99.90;3.90;99424.00;;;;5310194;26;116964;-62
2024/04/17 01:33:08;;;;;;;0.50;0.50;;;4.20;99.90;3.80;99425.00;;;;5307125;26;108114;-62
2024/04/17 01:35:34;;;;;;;1.80;0.80;;;4.10;99.90;3.70;99427.00;;;;5308165;26;106723;-63
2024/04/17 01:37:59;;;;;;;1.00;0.90;;;4.00;99.90;3.70;99431.00;;;;5306183;26;115607;-63
2024/04/17 01:40:25;;;;;;;0.77;0.57;;;3.90;99.90;3.60;99423.00;;;;5305988;26;112210;-63
2024/04/17 01:42:51;;;;;;;7.70;1.60;;;3.90;99.90;3.50;99433.00;;;;5310170;26;107584;-63
2024/04/17 01:45:16;;;;;;;2.10;0.90;;;4.00;99.90;3.50;99431.00;;;;5306663;26;107032;-64
2024/04/17 01:47:42;;;;;;;0.90;0.90;;;3.80;99.90;3.40;99431.00;;;;5309508;26;84393;-63
2024/04/17 01:50:08;;;;;;;2.17;0.60;;;3.70;99.90;3.40;99437.00;;;;5315001;26;90583;-63
2024/04/17 01:52:34;;;;;;;1.70;1.07;;;3.80;99.90;3.30;99450.00;;;;5307654;26;107936;-62
2024/04/17 01:55:00;;;;;;;2.00;0.90;;;3.60;99.90;3.20;99446.00;;;;5312066;26;106143;-62
2024/04/17 01:57:25;;;;;;;0.77;0.63;;;4.10;99.90;3.20;99453.00;;;;5310020;26;98662;-63
2024/04/17 01:59:51;;;;;;;1.03;0.93;;;3.60;99.90;3.10;99456.00;;;;5303817;26;109815;-63
2024/04/17 02:02:17;;;;;;;0.60;0.60;;;3.50;99.90;3.10;99466.00;;;;5306269;26;106998;-63
2024/04/17 02:04:42;;;;;;;1.33;1.00;;;3.40;99.90;3.10;99468.00;;;;5312369;26;106422;-63
2024/04/17 02:07:08;;;;;;;1.20;1.10;;;3.40;99.90;3.00;99474.00;;;;5305034;26;114837;-62
2024/04/17 02:09:34;;;;;;;0.70;0.70;;;3.30;99.90;3.00;99475.00;;;;5307564;26;114696;-63
2024/04/17 02:12:00;;;;;;;0.67;0.67;;;3.30;99.90;3.00;99478.00;;;;5307962;26;99614;-63
2024/04/17 02:14:25;;;;;;;1.97;1.27;;;3.30;99.90;3.00;99482.00;;;;5303180;26;105978;-63
2024/04/17 02:16:51;;;;;;;0.93;0.73;;;3.30;99.90;3.10;99478.00;;;;5312261;26;115122;-63
2024/04/17 02:19:17;;;;;;;1.27;1.17;;;3.40;99.90;3.20;99485.00;;;;5305633;26;115067;-63
2024/04/17 02:21:43;;;;;;;1.00;1.00;;;3.40;99.90;3.30;99478.00;;;;5311649;26;107833;-63
2024/04/17 02:24:08;;;;;;;2.03;1.20;;;3.50;99.90;3.40;99476.00;;;;5311134;26;105813;-63
2024/04/17 02:26:35;;;;;;;1.37;0.90;;;3.60;99.90;3.50;99473.00;;;;5311513;26;114347;-63
2024/04/17 02:29:01;;;;;;;0.70;0.70;;;3.60;99.90;3.50;99477.00;;;;5309420;26;84393;-64
2024/04/17 02:31:26;;;;;;;1.37;0.97;;;3.60;99.90;3.60;99481.00;;;;5314118;26;106044;-63
2024/04/17 02:33:52;;;;;;;2.20;0.90;;;3.80;99.90;3.60;99479.00;;;;5313035;26;105088;-62
2024/04/17 02:36:17;;;;;;;0.63;0.63;;;3.80;99.90;3.60;99472.00;;;;5304262;26;114554;-63
2024/04/17 02:38:43;;;;;;;2.43;0.97;;;3.80;99.90;3.60;99474.00;;;;5308053;26;113979;-63
2024/04/17 02:41:09;;;;;;;1.03;1.00;;;3.80;99.90;3.60;99483.00;;;;5306776;26;107933;-62
2024/04/17 02:43:34;;;;;;;0.90;0.63;;;3.80;99.90;3.60;99489.00;;;;5314661;26;106131;-62
2024/04/17 02:46:00;;;;;;;1.87;1.53;;;4.40;99.90;3.50;99489.00;;;;5308279;26;115697;-65
2024/04/17 02:48:26;;;;;;;0.50;0.50;;;3.80;99.90;3.50;99483.00;;;;5300773;26;116263;-62
2024/04/17 02:50:51;;;;;;;1.97;1.00;;;3.70;99.90;3.50;99485.00;;;;5305046;26;107942;-63
2024/04/17 02:53:17;;;;;;;0.67;0.50;;;3.80;99.90;3.40;99492.00;;;;5303954;26;106151;-63
2024/04/17 02:55:43;;;;;;;1.10;1.00;;;3.70;99.90;3.40;99495.00;;;;5310225;26;114303;-63
2024/04/17 02:58:08;;;;;;;2.60;1.50;;;3.60;99.90;3.30;99492.00;;;;5306897;26;113861;-64
2024/04/17 03:00:34;;;;;;;1.30;0.80;;;3.60;99.90;3.30;99489.00;;;;5304589;26;107084;-65
2024/04/17 03:03:04;;;;;;;1.63;1.07;;;3.50;99.90;3.30;99502.00;;;;5306408;26;106622;-65
2024/04/17 03:05:32;;;;;;;1.20;1.00;;;3.50;99.90;3.40;99501.00;;;;5304681;26;85176;-64
2024/04/17 03:07:58;;;;;;;1.23;0.93;;;3.50;99.90;3.40;99504.00;;;;5305200;26;84864;-65
2024/04/17 03:10:24;;;;;;;1.77;1.43;;;3.60;99.90;3.50;99503.00;;;;5304803;26;107560;-64
2024/04/17 03:12:49;;;;;;;1.07;1.03;;;4.00;99.90;3.50;99507.00;;;;5309186;26;106628;-64
2024/04/17 03:15:15;;;;;;;0.80;0.80;;;3.70;99.90;3.60;99508.00;;;;5310253;26;114428;-65
2024/04/17 03:17:41;;;;;;;1.73;1.03;;;3.70;99.90;3.60;99501.00;;;;5306206;26;91392;-64
2024/04/17 03:20:07;;;;;;;1.17;1.00;;;4.50;99.90;3.70;99509.00;;;;5309099;26;108243;-64
2024/04/17 03:22:33;;;;;;;1.63;1.07;;;4.30;99.90;3.70;99514.00;;;;5313372;26;83982;-63
2024/04/17 03:24:58;;;;;;;1.30;1.10;;;3.90;99.90;3.80;99514.00;;;;5308811;26;98029;-64
2024/04/17 03:27:24;;;;;;;1.57;1.20;;;4.00;99.90;3.90;99515.00;;;;5309215;26;114846;-64
2024/04/17 03:29:50;;;;;;;1.43;1.20;;;4.40;99.90;3.90;99522.00;;;;5305523;26;109167;-65
2024/04/17 03:32:15;;;;;;;1.30;1.20;;;4.90;99.90;4.00;99528.00;;;;5306675;26;85073;-62
2024/04/17 03:34:41;;;;;;;1.10;1.00;;;4.60;99.90;4.00;99526.00;;;;5309640;26;113944;-64
2024/04/17 03:37:06;;;;;;;2.67;1.40;;;4.20;99.90;4.00;99519.00;;;;5309351;26;113949;-64
2024/04/17 03:39:32;;;;;;;1.00;0.90;;;4.90;99.90;4.00;99525.00;;;;5305618;26;107471;-64
2024/04/17 03:41:58;;;;;;;1.30;1.20;;;4.30;99.90;4.10;99529.00;;;;5308357;26;105257;-64
2024/04/17 03:44:23;;;;;;;1.27;1.07;;;4.40;99.90;4.00;99528.00;;;;5308335;26;113224;-63
2024/04/17 03:46:49;;;;;;;1.20;0.93;;;4.30;99.90;4.00;99531.00;;;;5306733;26;114916;-65
2024/04/17 03:49:15;;;;;;;1.07;1.00;;;4.30;99.90;4.00;99540.00;;;;5310013;26;106769;-64
2024/04/17 03:51:41;;;;;;;2.00;1.37;;;4.30;99.90;4.00;99544.00;;;;5312873;26;84453;-62
2024/04/17 03:54:06;;;;;;;1.63;1.33;;;4.20;99.90;4.00;99548.00;;;;5308625;26;114655;-63
2024/04/17 03:56:32;;;;;;;1.37;1.27;;;4.90;99.90;4.00;99547.00;;;;5311727;26;112252;-63
2024/04/17 03:58:58;;;;;;;1.67;1.27;;;4.30;99.90;4.10;99543.00;;;;5307464;26;106482;-62
2024/04/17 04:01:23;;;;;;;1.23;0.90;;;4.30;99.90;4.10;99549.00;;;;5310258;26;104815;-63
2024/04/17 04:03:49;;;;;;;3.93;1.47;;;4.30;99.90;4.10;99551.00;;;;5313442;26;113800;-62
2024/04/17 04:06:14;;;;;;;1.67;1.07;;;4.30;99.90;4.10;99556.00;;;;5309176;26;113653;-62
2024/04/17 04:08:40;;;;;;;2.50;1.10;;;4.30;99.90;4.10;99555.00;;;;5311738;26;95497;-63
2024/04/17 04:11:06;;;;;;;2.27;1.73;;;4.30;99.90;4.10;99554.00;;;;5314864;25;107411;-63
2024/04/17 04:13:31;;;;;;;1.73;1.20;;;4.30;99.90;4.10;99575.00;;;;5343326;25;85503;-63
2024/04/17 04:15:57;;;;;;;0.87;0.87;;;4.30;99.90;4.10;99576.00;;;;5344915;25;115279;-65
2024/04/17 04:18:23;;;;;;;1.17;1.07;;;4.30;99.90;4.10;99574.00;;;;5342779;25;86081;-65
2024/04/17 04:20:49;;;;;;;2.07;1.73;;;4.40;99.90;4.20;99580.00;;;;5338940;26;84227;-64
2024/04/17 04:23:15;;;;;;;1.77;1.20;;;4.30;99.90;4.20;99579.00;;;;5344127;26;90230;-64
2024/04/17 04:25:41;;;;;;;1.30;1.20;;;4.40;99.90;4.20;99581.00;;;;5340054;26;105669;-66
2024/04/17 04:28:07;;;;;;;2.73;1.23;;;4.40;99.90;4.20;99592.00;;;;5343892;26;84647;-62
2024/04/17 04:30:37;;;;;;;1.90;1.17;;;4.40;99.90;4.20;99587.00;;;;5345077;26;106742;-63
2024/04/17 04:33:03;;;;;;;2.70;1.53;;;4.70;99.90;4.20;99582.00;;;;5342375;25;85576;-63
2024/04/17 04:35:29;;;;;;;1.33;1.17;;;4.40;99.90;4.10;99592.00;;;;5343309;25;85189;-63
2024/04/17 04:37:54;;;;;;;1.37;1.20;;;4.40;99.90;4.00;99585.00;;;;5342342;26;102032;-65
2024/04/17 04:40:20;;;;;;;4.73;1.93;;;4.30;99.90;4.00;99593.00;;;;5340745;25;105287;-63
2024/04/17 04:42:46;;;;;;;1.13;1.03;;;4.20;99.90;3.90;99594.00;;;;5338255;26;115453;-62
2024/04/17 04:45:11;;;;;;;2.20;1.47;;;4.20;99.90;3.90;99604.00;;;;5340920;25;115099;-63
2024/04/17 04:47:37;;;;;;;1.90;1.23;;;4.20;99.90;3.80;99612.00;;;;5336672;25;108596;-62
2024/04/17 04:50:03;;;;;;;3.80;1.37;;;4.00;99.90;3.80;99603.00;;;;5338587;26;105804;-62
2024/04/17 04:52:29;;;;;;;1.47;1.37;;;4.00;99.90;3.80;99601.00;;;;5338686;26;107710;-63
2024/04/17 04:54:54;;;;;;;1.63;1.13;;;4.00;99.90;3.70;99613.00;;;;5340369;26;85707;-63
2024/04/17 04:57:22;;;;;;;1.10;1.00;;;3.90;99.90;3.70;99605.00;;;;5337644;25;107159;-62
2024/04/17 04:59:49;;;;;;;1.80;1.37;;;4.00;99.90;3.80;99617.00;;;;5343536;25;83908;-63
2024/04/17 05:02:15;;;;;;;2.33;1.80;;;4.00;99.90;3.80;99612.00;;;;5338900;25;84856;-62
2024/04/17 05:04:41;;;;;;;1.70;1.60;;;4.00;99.90;3.90;99609.00;;;;5338766;26;85341;-63
2024/04/17 05:07:07;;;;;;;2.20;1.87;;;4.60;99.90;3.90;99607.00;;;;5336983;26;106645;-62
2024/04/17 05:09:33;;;;;;;1.93;1.40;;;4.10;99.90;4.00;99611.00;;;;5344656;25;92151;-64
2024/04/17 05:11:59;;;;;;;2.70;1.70;;;4.20;99.90;4.00;99611.00;;;;5340766;25;86182;-63
2024/04/17 05:14:24;;;;;;;2.73;1.43;;;4.20;99.90;4.10;99620.00;;;;5310748;25;114834;-63
2024/04/17 05:16:50;;;;;;;2.23;1.07;;;4.20;99.90;4.10;99623.00;;;;5341012;25;107688;-64
2024/04/17 05:19:16;;;;;;;1.70;1.27;;;4.30;99.90;4.20;99623.00;;;;5341333;25;86290;-64
2024/04/17 05:21:41;;;;;;;0.80;0.80;;;5.00;99.90;4.20;99639.00;;;;5341816;25;114418;-64
2024/04/17 05:24:08;;;;;;;2.97;1.80;;;5.10;99.90;4.20;99645.00;;;;5341022;25;114814;-64
2024/04/17 05:26:33;;;;;;;1.83;1.67;;;4.40;99.90;4.20;99641.00;;;;5343692;25;84651;-62
2024/04/17 05:28:59;;;;;;;3.43;1.73;;;4.80;99.90;4.20;99653.00;;;;5340273;25;106746;-64
2024/04/17 05:31:25;;;;;;;11.33;1.30;;;4.40;99.90;4.10;99647.00;;;;5342573;25;87134;-61
2024/04/17 05:33:50;;;;;;;2.70;1.60;;;4.30;99.90;4.20;99648.00;;;;5313645;25;115367;-64
2024/04/17 05:36:16;;;;;;;1.13;1.00;;;4.30;99.90;4.20;99659.00;;;;5337719;25;84826;-64
2024/04/17 05:38:42;;;;;;;1.90;1.13;;;4.40;99.90;4.20;99655.00;;;;5334129;25;105885;-64
2024/04/17 05:41:07;;;;;;;1.47;1.37;;;4.30;99.90;4.20;99655.00;;;;5335549;25;114541;-64
2024/04/17 05:43:33;;;;;;;2.50;1.80;;;4.40;99.90;4.20;99644.00;;;;5343867;25;114108;-63
2024/04/17 05:45:58;;;;;;;2.10;1.30;;;4.30;99.90;4.30;99659.00;;;;5339209;25;107682;-63
2024/04/17 05:48:24;;;;;;;1.73;1.63;;;4.40;99.90;4.30;99658.00;;;;5344405;25;93240;-63
2024/04/17 05:50:50;;;;;;;3.47;1.50;;;4.50;99.90;4.40;99657.00;;;;5340686;25;85610;-64
2024/04/17 05:53:16;;;;;;;3.17;1.70;;;4.50;99.90;4.50;99659.00;;;;5341049;25;115313;-63
2024/04/17 05:55:42;;;;;;;1.77;1.53;;;4.60;99.90;4.60;99663.00;;;;5334786;26;85451;-63
2024/04/17 05:58:08;;;;;;;2.23;1.73;;;4.60;99.90;4.60;99668.00;;;;5343474;25;84507;-63
2024/04/17 06:00:34;;;;;;;1.17;1.07;;;5.20;99.90;4.70;99666.00;;;;5342554;25;84650;-63
2024/04/17 06:03:00;;;;;;;2.50;1.60;;;4.80;99.90;4.80;99662.00;;;;5344393;26;85463;-63
2024/04/17 06:05:25;;;;;;;1.67;1.40;;;5.10;99.90;4.90;99659.00;;;;5339763;25;106630;-64
2024/04/17 06:07:51;;;;;;;1.53;1.40;;;5.00;99.90;4.90;99659.00;;;;5341118;25;105530;-63
2024/04/17 06:10:17;;;;;;;2.53;1.83;;;5.10;99.90;4.90;99660.00;;;;5340048;25;114177;-63
2024/04/17 06:12:42;;;;;;;2.10;1.50;;;5.00;99.90;4.90;99653.00;;;;5339872;25;110508;-63
2024/04/17 06:15:09;;;;;;;1.50;1.27;;;5.00;99.90;4.90;99660.00;;;;5310078;25;108518;-64
2024/04/17 06:17:35;;;;;;;2.93;1.20;;;5.10;99.90;5.00;99670.00;;;;5336585;25;85670;-63
2024/04/17 06:20:00;;;;;;;2.23;1.10;;;5.80;99.90;5.20;99671.00;;;;5337046;25;102160;-63
2024/04/17 06:22:26;;;;;;;4.13;1.77;;;5.30;99.90;5.40;99677.00;;;;5342326;25;115678;-63
2024/04/17 06:24:54;;;;;;;1.80;1.53;;;5.50;99.90;5.60;99665.00;;;;5339226;26;108812;-63
2024/04/17 06:27:20;;;;;;;1.33;1.20;;;5.70;99.90;5.90;99667.00;;;;5342160;25;86229;-63
2024/04/17 06:29:46;;;;;;;1.27;1.17;;;6.30;99.90;6.30;99674.00;;;;5346112;25;85122;-64
2024/04/17 06:32:11;;;;;;;1.93;1.40;;;6.30;99.90;6.60;99682.00;;;;5334571;25;114283;-63
2024/04/17 06:34:37;;;;;;;1.07;1.00;;;6.70;99.90;7.00;99670.00;;;;5337245;26;107416;-63
2024/04/17 06:37:03;;;;;;;0.93;0.80;;;7.00;99.90;7.40;99673.00;;;;5339719;26;106638;-63
2024/04/17 06:39:29;;;;;;;0.73;0.73;;;7.30;99.90;7.80;99677.00;;;;5340353;26;113323;-63
2024/04/17 06:41:57;;;;;;;0.60;0.60;;;7.60;99.90;8.10;99687.00;;;;5341622;26;85498;-63
2024/04/17 06:44:23;;;;;;;0.83;0.83;;;8.10;99.90;8.50;99676.00;;;;5323801;26;85259;-64
2024/04/17 06:46:49;;;;;;;0.70;0.70;;;8.50;99.90;8.80;99672.00;;;;5334189;26;89210;-63
2024/04/17 06:49:14;;;;;;;0.83;0.83;;;8.80;99.90;9.20;99677.00;;;;5339980;25;89364;-63
2024/04/17 06:51:40;;;;;;;1.17;0.70;;;9.10;99.90;9.50;99680.00;;;;5340619;25;115208;-62
2024/04/17 06:54:06;;;;;;;0.80;0.80;;;9.40;99.90;9.80;99684.00;;;;5334688;26;108283;-63
2024/04/17 06:56:31;;;;;;;1.43;1.03;;;9.80;99.90;10.10;99692.00;;;;5335348;26;88965;-63
2024/04/17 06:58:57;;;;;;;1.70;1.33;;;10.00;99.90;10.20;99689.00;;;;5336426;25;111324;-63
2024/04/17 07:01:23;;;;;;;1.70;1.03;;;10.30;99.90;10.20;99694.00;;;;5342258;25;114813;-63
2024/04/17 07:03:48;;;;;;;1.00;0.87;;;10.30;99.90;10.20;99689.00;;;;5313028;26;103626;-63
2024/04/17 07:06:14;;;;;;;1.63;0.80;;;10.30;99.90;10.20;99697.00;;;;5334826;25;105234;-62
2024/04/17 07:08:40;;;;;;;0.57;0.57;;;10.30;99.90;10.20;99695.00;;;;5340978;25;108008;-63
2024/04/17 07:11:05;;;;;;;1.37;1.03;;;10.30;99.90;10.20;99697.00;;;;5338052;25;86277;-63
2024/04/17 07:13:31;;;;;;;0.70;0.70;;;10.30;99.90;10.10;99702.00;;;;5313488;25;84636;-62
2024/04/17 07:15:57;;;;;;;1.23;0.80;;;10.20;99.90;10.00;99697.00;;;;5317824;25;85473;-62
2024/04/17 07:18:24;;;;;;;0.67;0.60;;;10.20;99.90;10.00;99697.00;;;;5339584;25;85524;-62
2024/04/17 07:20:50;;;;;;;0.90;0.73;;;10.10;99.90;10.00;99705.00;;;;5337964;25;84514;-63
2024/04/17 07:23:16;;;;;;;1.27;0.40;;;10.10;99.90;10.00;99702.00;;;;5323905;25;85315;-63
2024/04/17 07:25:42;;;;;;;1.10;0.70;;;10.10;99.90;10.00;99701.00;;;;5328043;25;89867;-63
2024/04/17 07:28:08;;;;;;;0.80;0.67;;;10.10;99.90;10.10;99706.00;;;;5338358;25;114285;-64
2024/04/17 07:30:38;;;;;;;0.57;0.43;;;10.10;99.90;10.20;99706.00;;;;5341959;26;85125;-64
2024/04/17 07:33:04;;;;;;;0.77;0.73;;;10.20;99.90;10.30;99701.00;;;;5326535;25;86585;-63
2024/04/17 07:35:30;;;;;;;1.33;0.80;;;10.30;99.90;10.30;99704.00;;;;5318942;26;84330;-63
2024/04/17 07:37:56;;;;;;;0.50;0.50;;;10.30;99.90;10.20;99703.00;;;;5339490;25;84926;-62
2024/04/17 07:40:22;;;;;;;0.50;0.43;;;10.30;99.90;10.20;99707.00;;;;5336272;25;114641;-63
2024/04/17 07:42:47;;;;;;;1.07;0.70;;;10.30;99.90;10.10;99708.00;;;;5338107;25;100662;-63
2024/04/17 07:45:13;;;;;;;4.03;0.63;;;10.20;99.90;10.10;99707.00;;;;5336990;25;105554;-63
2024/04/17 07:47:40;;;;;;;3.40;0.90;;;10.20;99.90;10.10;99714.00;;;;5337612;25;106482;-63
2024/04/17 07:50:06;;;;;;;1.60;0.43;;;10.20;99.90;10.10;99712.00;;;;5333530;26;84354;-63
2024/04/17 07:52:32;;;;;;;0.83;0.60;;;10.20;99.90;10.10;99715.00;;;;5338548;25;84558;-62
2024/04/17 07:54:57;;;;;;;2.90;0.80;;;10.20;99.90;10.10;99716.00;;;;5341888;25;89332;-63
2024/04/17 07:57:23;;;;;;;1.70;0.50;;;10.10;99.90;10.10;99706.00;;;;5339208;26;86453;-62
2024/04/17 07:59:49;;;;;;;1.07;0.70;;;10.10;99.90;10.10;99719.00;;;;5317144;26;86677;-62
2024/04/17 08:02:15;;;;;;;1.10;0.60;;;10.30;99.90;10.20;99723.00;;;;5339439;25;106648;-63
2024/04/17 08:04:40;;;;;;;1.27;0.60;;;10.20;99.90;10.30;99711.00;;;;5339998;25;107312;-64
2024/04/17 08:07:06;;;;;;;0.57;0.40;;;10.30;99.90;10.40;99718.00;;;;5338428;26;115379;-64
2024/04/17 08:09:33;;;;;;;1.03;0.63;;;10.40;99.90;10.50;99714.00;;;;5344472;25;88952;-63
2024/04/17 08:11:58;;;;;;;0.30;0.30;;;10.50;99.90;10.60;99716.00;;;;5340587;25;96766;-65
2024/04/17 08:14:24;;;;;;;0.83;0.30;;;10.60;99.90;10.70;99722.00;;;;5339103;25;106617;-63
2024/04/17 08:16:50;;;;;;;1.23;0.40;;;10.60;99.90;10.80;99720.00;;;;5338132;25;84912;-63
2024/04/17 08:19:16;;;;;;;1.27;0.57;;;10.80;99.90;10.90;99720.00;;;;5337656;26;85551;-63
2024/04/17 08:21:42;;;;;;;0.30;0.30;;;10.80;99.90;11.00;99726.00;;;;5337505;25;85445;-63
2024/04/17 08:24:08;;;;;;;0.50;0.40;;;11.00;99.90;11.10;99718.00;;;;5338749;25;106212;-63
2024/04/17 08:26:34;;;;;;;0.60;0.50;;;11.00;99.90;11.20;99720.00;;;;5339677;25;85135;-63
2024/04/17 08:28:59;;;;;;;0.83;0.50;;;11.20;99.90;11.40;99721.00;;;;5344332;25;114588;-63
2024/04/17 08:31:26;;;;;;;0.20;0.20;;;11.30;99.90;11.50;99717.00;;;;5339137;26;85552;-64
2024/04/17 08:33:52;;;;;;;0.67;0.57;;;11.40;99.90;11.60;99724.00;;;;5314958;26;84403;-63
2024/04/17 08:36:18;;;;;;;0.27;0.27;;;11.50;99.90;11.70;99718.00;;;;5342671;25;93773;-65
2024/04/17 08:38:44;;;;;;;0.10;0.10;;;11.60;99.90;11.70;99724.00;;;;5338679;25;112743;-63
2024/04/17 08:41:10;;;;;;;0.50;0.47;;;11.70;99.90;11.80;99734.00;;;;5342674;25;84640;-64
2024/04/17 08:43:37;;;;;;;0.37;0.30;;;11.70;99.90;11.90;99722.00;;;;5342264;25;90839;-64
2024/04/17 08:46:05;;;;;;;0.60;0.60;;;11.80;99.90;12.00;99718.00;;;;5341504;25;86373;-64
2024/04/17 08:48:32;;;;;;;0.13;0.13;;;12.00;99.90;12.10;99720.00;;;;5331817;26;87213;-64
2024/04/17 08:50:59;;;;;;;0.80;0.67;;;12.10;99.90;12.40;99724.00;;;;5334262;25;97624;-65
2024/04/17 08:53:29;;;;;;;2.63;0.70;;;12.20;99.90;12.70;99719.00;;;;5304678;25;106525;-65
2024/04/17 08:55:55;;;;;;;0.63;0.60;;;11.50;99.70;13.00;99720.00;;;;5314148;26;116230;-65
2024/04/17 08:58:21;;;;;;;1.47;0.73;;;12.70;99.20;13.30;99727.00;;;;5337745;25;114372;-65
2024/04/17 09:00:51;;;;;;;0.60;0.47;;;13.10;98.70;13.70;99730.00;;;;5339771;26;106896;-65
2024/04/17 09:03:23;;;;;;;0.47;0.20;;;13.40;98.30;14.10;99730.00;;;;5324531;26;85038;-65
2024/04/17 09:05:52;;;;;;;0.20;0.20;;;13.50;97.20;14.40;99725.00;;;;5334933;26;106994;-65
2024/04/17 09:08:19;;;;;;;0.50;0.40;;;14.10;95.40;14.50;99728.00;;;;5344213;25;84854;-65
2024/04/17 09:10:45;;;;;;;0.50;0.50;;;14.30;93.40;14.50;99715.00;;;;5346091;25;85125;-64
2024/04/17 09:13:13;;;;;;;0.17;0.17;;;14.50;91.60;14.40;99720.00;;;;5341632;25;84634;-64
2024/04/17 09:15:38;;;;;;;0.40;0.40;;;14.40;91.20;14.50;99723.00;;;;5307335;26;113238;-63
2024/04/17 09:18:11;;;;;;;2.53;0.40;;;14.40;91.10;14.50;99731.00;;;;5336275;25;115509;-63
2024/04/17 09:20:37;;;;;;;0.30;0.15;;;14.40;90.50;14.40;99725.00;;;;5330724;25;84519;-63
2024/04/17 09:23:09;;;;;;;0.70;0.30;;;14.40;90.30;14.50;99729.00;;;;5340555;25;84407;-64
2024/04/17 09:25:36;;;;;;;0.80;0.40;;;14.40;90.10;14.70;99728.00;;;;5342364;26;85351;-64
2024/04/17 09:28:01;;;;;;;0.37;0.27;;;14.50;90.30;14.90;99729.00;;;;5338281;26;102350;-64
2024/04/17 09:30:27;;;;;;;0.67;0.47;;;14.70;90.40;15.30;99730.00;;;;5343280;25;108656;-64
2024/04/17 09:32:53;;;;;;;3.03;0.40;;;15.00;89.80;15.60;99722.00;;;;5341350;25;106057;-64
2024/04/17 09:35:18;;;;;;;0.45;0.22;;;15.20;87.40;15.90;99730.00;;;;5342092;25;115854;-63
2024/04/17 09:37:44;;;;;;;0.20;0.20;;;15.50;87.50;16.30;99735.00;;;;5338011;25;113844;-65
2024/04/17 09:40:10;;;;;;;1.38;0.90;;;15.90;86.40;16.50;99733.00;;;;5338885;25;107122;-64
2024/04/17 09:42:41;;;;;;;0.73;0.30;;;16.20;84.60;16.60;99729.00;;;;5339807;25;84596;-63
2024/04/17 09:45:15;;;;;;;0.10;0.10;;;16.40;82.30;16.80;99732.00;;;;5344871;25;85379;-64
2024/04/17 09:47:45;;;;;;;0.55;0.43;;;16.30;82.20;17.20;99739.00;;;;5313336;25;85419;-64
2024/04/17 09:50:17;;;;;;;1.48;0.30;;;16.80;82.20;17.40;99736.00;;;;5341456;25;111408;-64
2024/04/17 09:52:48;;;;;;;0.70;0.50;;;17.10;79.90;17.50;99730.00;;;;5343825;25;83702;-63
2024/04/17 09:55:16;;;;;;;0.45;0.32;;;17.20;78.80;17.60;99729.00;;;;5343515;25;85351;-64
2024/04/17 09:57:42;;;;;;;1.05;0.25;;;17.30;76.70;17.50;99725.00;;;;5320211;26;104736;-65
2024/04/17 10:00:10;;;;;;;0.30;0.30;;;17.30;75.60;17.30;99727.00;;;;5306515;26;108270;-64
2024/04/17 10:02:37;;;;;;;0.25;0.25;;;17.20;75.30;17.20;99734.00;;;;5309484;26;98314;-65
2024/04/17 10:05:04;;;;;;;1.00;0.30;;;17.00;75.10;16.90;99731.00;;;;5309269;26;111339;-64
2024/04/17 10:07:30;;;;;;;0.20;0.20;;;16.80;72.70;16.50;99724.00;;;;5342999;25;85869;-64
2024/04/17 10:09:58;;;;;;;0.30;0.25;;;16.50;74.00;16.40;99726.00;;;;5336380;26;107001;-64
2024/04/17 10:12:25;;;;;;;0.40;0.40;;;16.20;73.80;16.60;99721.00;;;;5305363;26;84928;-64
2024/04/17 10:14:53;;;;;;;3.70;0.40;;;16.30;74.10;17.00;99719.00;;;;5335757;25;118276;-64
2024/04/17 10:17:19;;;;;;;0.68;0.50;;;16.60;74.40;17.30;99724.00;;;;5338005;25;84436;-64
2024/04/17 10:19:51;;;;;;;0.30;0.30;;;16.90;72.10;17.40;99718.00;;;;5339110;25;84441;-64
2024/04/17 10:22:17;;;;;;;1.85;0.40;;;17.00;70.70;17.20;99719.00;;;;5340324;25;84600;-64
2024/04/17 10:24:43;;;;;;;0.70;0.57;;;16.90;70.00;17.20;99718.00;;;;5338418;25;87378;-64
2024/04/17 10:27:19;;;;;;;1.70;0.50;;;16.90;70.00;17.20;99727.00;;;;5340555;26;114789;-64
2024/04/17 10:29:45;;;;;;;2.33;0.47;;;17.00;70.20;17.20;99720.00;;;;5343356;25;84903;-64
2024/04/17 10:32:12;;;;;;;3.67;0.32;;;16.90;70.00;17.10;99721.00;;;;5342298;25;84886;-64
2024/04/17 10:34:46;;;;;;;1.10;0.77;;;16.80;69.50;17.10;99729.00;;;;5341234;25;103530;-64
2024/04/17 10:37:16;;;;;;;1.70;0.40;;;16.80;69.90;16.90;99727.00;;;;5339698;25;85695;-64
2024/04/17 10:39:42;;;;;;;0.65;0.47;;;16.70;68.50;16.50;99722.00;;;;5338042;25;84864;-64
2024/04/17 10:42:09;;;;;;;0.38;0.38;;;16.50;68.20;16.40;99716.00;;;;5339477;25;89340;-65
2024/04/17 10:44:51;;;;;;;0.75;0.40;;;16.20;69.50;16.80;99712.00;;;;5359314;25;103941;-65
2024/04/17 10:47:26;;;;;;;0.60;0.30;;;16.40;69.80;17.10;99719.00;;;;5334520;25;85353;-64
2024/04/17 10:50:05;;;;;;;1.20;0.30;;;16.70;69.10;17.40;99721.00;;;;5342294;25;87042;-64
2024/04/17 10:52:32;;;;;;;0.35;0.35;;;17.00;67.50;17.80;99712.00;;;;5340968;25;84280;-64
2024/04/17 10:55:00;;;;;;;0.55;0.28;;;17.30;67.90;18.10;99703.00;;;;5309708;25;84430;-65